Time;durP1;ratioP1;P1;durP2;ratioP2;P2;SDS_P1;SDS_P2;PMS_P1;PMS_P2;Temp;Humidity;BMP_temperature;BMP_pressure;BME280_temperature;BME280_humidity;BME280_pressure;Samples;Min_cycle;Max_cycle;Signal;HPM_P1;HPM_P2
2021/01/31 00:02:02;;;;;;;36.92;23.00;;;;;;;;;;5050710;28;20176;-76
2021/01/31 00:04:28;;;;;;;38.55;23.27;;;;;;;;;;5048366;28;20181;-75
2021/01/31 00:06:56;;;;;;;38.28;24.25;;;;;;;;;;5049437;28;20637;-76
2021/01/31 00:09:22;;;;;;;41.08;24.10;;;;;;;;;;5055174;28;20232;-75
2021/01/31 00:11:48;;;;;;;39.22;24.67;;;;;;;;;;5056799;28;20197;-73
2021/01/31 00:14:14;;;;;;;41.95;26.60;;;;;;;;;;5042458;28;20213;-75
2021/01/31 00:16:40;;;;;;;41.38;25.75;;;;;;;;;;5053923;28;20965;-76
2021/01/31 00:19:06;;;;;;;45.55;26.65;;;;;;;;;;5049154;28;20303;-74
2021/01/31 00:21:32;;;;;;;55.33;29.60;;;;;;;;;;5048290;28;20321;-77
2021/01/31 00:23:58;;;;;;;48.03;28.50;;;;;;;;;;5048814;28;20267;-75
2021/01/31 00:26:24;;;;;;;55.33;29.23;;;;;;;;;;5048578;28;20246;-74
2021/01/31 00:28:50;;;;;;;47.47;27.95;;;;;;;;;;5048962;28;20201;-76
2021/01/31 00:31:16;;;;;;;52.35;28.13;;;;;;;;;;5048466;28;20563;-74
2021/01/31 00:33:42;;;;;;;47.35;27.70;;;;;;;;;;5044458;28;20203;-74
2021/01/31 00:36:08;;;;;;;43.60;26.75;;;;;;;;;;5048281;28;20587;-76
2021/01/31 00:38:35;;;;;;;40.78;26.27;;;;;;;;;;5048929;28;20284;-73
2021/01/31 00:41:01;;;;;;;42.55;27.42;;;;;;;;;;5048870;28;20180;-74
2021/01/31 00:43:27;;;;;;;40.45;25.13;;;;;;;;;;5048335;28;20181;-75
2021/01/31 00:45:56;;;;;;;39.20;24.52;;;;;;;;;;5051327;28;20180;-73
2021/01/31 00:48:22;;;;;;;44.47;24.35;;;;;;;;;;5061988;28;20237;-73
2021/01/31 00:50:48;;;;;;;41.22;24.85;;;;;;;;;;5070759;28;20310;-73
2021/01/31 00:53:14;;;;;;;45.03;22.75;;;;;;;;;;5053138;28;20201;-73
2021/01/31 00:55:40;;;;;;;37.25;22.65;;;;;;;;;;5048016;28;20177;-74
2021/01/31 00:58:06;;;;;;;38.80;22.30;;;;;;;;;;5055807;28;20189;-73
2021/01/31 01:00:33;;;;;;;36.03;22.17;;;;;;;;;;5049167;28;20213;-72
2021/01/31 01:03:00;;;;;;;43.85;24.20;;;;;;;;;;5052253;28;20207;-73
2021/01/31 01:05:27;;;;;;;41.20;22.73;;;;;;;;;;5061982;28;20271;-75
2021/01/31 01:07:53;;;;;;;37.65;22.73;;;;;;;;;;5063025;28;20220;-73
2021/01/31 01:10:21;;;;;;;44.00;22.77;;;;;;;;;;5051850;28;20216;-74
2021/01/31 01:12:47;;;;;;;38.42;23.25;;;;;;;;;;5057004;28;20200;-71
2021/01/31 01:15:14;;;;;;;37.75;23.25;;;;;;;;;;5064687;28;20227;-72
2021/01/31 01:17:40;;;;;;;31.73;21.20;;;;;;;;;;5049473;28;20181;-72
2021/01/31 01:20:07;;;;;;;39.10;22.58;;;;;;;;;;5051354;28;20303;-73
2021/01/31 01:22:33;;;;;;;31.83;20.35;;;;;;;;;;5051682;28;20180;-72
2021/01/31 01:25:02;;;;;;;34.70;20.88;;;;;;;;;;5051295;28;20212;-75
2021/01/31 01:27:28;;;;;;;35.63;20.80;;;;;;;;;;5051752;28;20222;-72
2021/01/31 01:29:54;;;;;;;37.30;21.23;;;;;;;;;;5051351;28;20435;-74
2021/01/31 01:32:20;;;;;;;31.80;19.63;;;;;;;;;;5051776;28;20713;-74
2021/01/31 01:34:46;;;;;;;30.40;19.02;;;;;;;;;;5050956;28;20263;-72
2021/01/31 01:37:13;;;;;;;29.80;18.88;;;;;;;;;;5051782;28;20264;-72
2021/01/31 01:39:39;;;;;;;27.00;16.42;;;;;;;;;;5051257;28;20724;-72
2021/01/31 01:42:08;;;;;;;23.80;15.48;;;;;;;;;;5051591;28;20643;-72
2021/01/31 01:44:35;;;;;;;24.50;16.77;;;;;;;;;;5050482;28;20177;-76
2021/01/31 01:47:03;;;;;;;27.67;17.25;;;;;;;;;;5059551;28;20173;-73
2021/01/31 01:49:35;;;;;;;24.60;17.83;;;;;;;;;;5055412;28;20258;-75
2021/01/31 01:52:08;;;;;;;27.85;17.00;;;;;;;;;;5055134;28;20188;-74
2021/01/31 01:54:36;;;;;;;23.25;15.65;;;;;;;;;;5056305;28;20208;-74
2021/01/31 01:57:06;;;;;;;26.52;17.17;;;;;;;;;;5074944;28;20219;-74
2021/01/31 01:59:34;;;;;;;27.70;17.67;;;;;;;;;;5060814;28;20280;-71
2021/01/31 02:02:13;;;;;;;27.73;17.92;;;;;;;;;;5056033;28;20177;-70
2021/01/31 02:04:40;;;;;;;27.00;17.92;;;;;;;;;;5054769;28;20494;-71
2021/01/31 02:07:06;;;;;;;31.25;18.88;;;;;;;;;;5055032;28;20174;-73
2021/01/31 02:09:33;;;;;;;25.20;17.42;;;;;;;;;;5073291;28;20209;-73
2021/01/31 02:12:00;;;;;;;26.20;17.70;;;;;;;;;;5074940;28;20176;-72
2021/01/31 02:14:27;;;;;;;26.73;17.98;;;;;;;;;;5074307;28;20245;-71
2021/01/31 02:16:56;;;;;;;35.70;19.33;;;;;;;;;;5047090;28;20189;-73
2021/01/31 02:19:41;;;;;;;24.38;17.50;;;;;;;;;;5054835;28;20707;-72
2021/01/31 02:22:26;;;;;;;27.05;18.52;;;;;;;;;;5054850;28;20208;-72
2021/01/31 02:24:55;;;;;;;36.40;18.98;;;;;;;;;;5054368;28;20180;-71
2021/01/31 02:27:44;;;;;;;26.48;18.67;;;;;;;;;;5054754;28;20185;-73
2021/01/31 02:30:16;;;;;;;30.52;20.00;;;;;;;;;;5040630;28;20224;-74
2021/01/31 02:33:07;;;;;;;35.35;20.73;;;;;;;;;;5055327;28;20200;-72
2021/01/31 02:35:35;;;;;;;33.38;20.25;;;;;;;;;;5053141;28;20196;-72
2021/01/31 02:38:20;;;;;;;31.27;20.30;;;;;;;;;;5044891;28;20174;-72
2021/01/31 02:40:56;;;;;;;38.22;21.10;;;;;;;;;;5069221;28;20668;-72
2021/01/31 02:43:40;;;;;;;32.42;20.70;;;;;;;;;;5053917;28;20184;-72
2021/01/31 02:46:29;;;;;;;46.95;22.80;;;;;;;;;;5046007;28;20537;-74
2021/01/31 02:49:08;;;;;;;33.85;21.55;;;;;;;;;;5048005;28;20220;-74
2021/01/31 02:51:46;;;;;;;38.30;20.77;;;;;;;;;;5053590;28;20550;-71
2021/01/31 02:54:25;;;;;;;39.65;21.30;;;;;;;;;;5046595;28;20697;-72
2021/01/31 02:56:54;;;;;;;41.05;21.45;;;;;;;;;;5040902;28;20165;-76
2021/01/31 02:59:40;;;;;;;40.67;22.05;;;;;;;;;;5048502;28;20221;-71
2021/01/31 03:02:09;;;;;;;42.83;22.73;;;;;;;;;;5041435;28;20181;-73
2021/01/31 03:04:38;;;;;;;36.53;20.65;;;;;;;;;;5053153;28;20184;-72
2021/01/31 03:07:23;;;;;;;40.03;20.48;;;;;;;;;;5053252;28;20173;-72
2021/01/31 03:09:54;;;;;;;40.10;19.65;;;;;;;;;;5050639;28;20601;-71
2021/01/31 03:12:23;;;;;;;38.95;20.88;;;;;;;;;;5064133;28;20180;-71
2021/01/31 03:14:56;;;;;;;40.83;20.70;;;;;;;;;;5054139;28;20174;-72
2021/01/31 03:17:27;;;;;;;36.50;19.35;;;;;;;;;;5049597;28;20618;-74
2021/01/31 03:20:01;;;;;;;35.03;20.45;;;;;;;;;;5053610;28;20216;-72
2021/01/31 03:22:31;;;;;;;38.85;19.98;;;;;;;;;;5047121;28;20180;-73
2021/01/31 03:24:59;;;;;;;36.83;20.45;;;;;;;;;;5073159;28;20172;-72
2021/01/31 03:27:29;;;;;;;37.60;19.33;;;;;;;;;;5060008;28;20271;-74
2021/01/31 03:29:55;;;;;;;30.17;18.35;;;;;;;;;;5055317;28;20535;-73
2021/01/31 03:32:30;;;;;;;34.08;19.48;;;;;;;;;;5051986;28;20180;-74
2021/01/31 03:35:02;;;;;;;35.13;18.40;;;;;;;;;;5052766;28;20644;-74
2021/01/31 03:37:34;;;;;;;35.28;19.40;;;;;;;;;;5053448;28;20177;-70
2021/01/31 03:40:00;;;;;;;30.55;16.55;;;;;;;;;;5049486;28;20208;-73
2021/01/31 03:42:26;;;;;;;35.83;19.60;;;;;;;;;;5053537;28;20174;-72
2021/01/31 03:44:54;;;;;;;34.75;17.58;;;;;;;;;;5044054;28;20185;-74
2021/01/31 03:47:23;;;;;;;31.20;17.55;;;;;;;;;;5073466;28;20182;-71
2021/01/31 03:49:59;;;;;;;35.55;17.95;;;;;;;;;;5059642;28;20227;-70
2021/01/31 03:52:26;;;;;;;34.38;18.55;;;;;;;;;;5065357;28;20219;-71
2021/01/31 03:54:52;;;;;;;39.80;19.73;;;;;;;;;;5047054;28;20185;-72
2021/01/31 03:57:22;;;;;;;39.28;20.35;;;;;;;;;;5051361;28;20177;-72
2021/01/31 03:59:57;;;;;;;35.60;20.42;;;;;;;;;;5039899;28;20197;-73
2021/01/31 04:02:26;;;;;;;43.70;21.90;;;;;;;;;;5046949;28;20175;-74
2021/01/31 04:04:53;;;;;;;40.53;21.00;;;;;;;;;;5041848;28;20183;-73
2021/01/31 04:07:21;;;;;;;43.47;22.80;;;;;;;;;;5050785;28;20184;-76
2021/01/31 04:09:48;;;;;;;43.20;21.63;;;;;;;;;;5052811;28;20193;-74
2021/01/31 04:12:17;;;;;;;40.05;20.70;;;;;;;;;;5052091;28;20192;-75
2021/01/31 04:14:59;;;;;;;34.42;19.77;;;;;;;;;;5051731;28;20188;-71
2021/01/31 04:17:25;;;;;;;41.50;20.20;;;;;;;;;;5049474;28;20196;-74
2021/01/31 04:19:51;;;;;;;43.65;22.27;;;;;;;;;;5062891;28;20290;-72
2021/01/31 04:22:17;;;;;;;39.97;20.17;;;;;;;;;;5058906;28;20538;-71
2021/01/31 04:24:43;;;;;;;43.35;22.70;;;;;;;;;;5056099;28;20220;-71
2021/01/31 04:27:09;;;;;;;38.35;21.08;;;;;;;;;;5073946;28;20199;-72
2021/01/31 04:29:35;;;;;;;37.95;20.25;;;;;;;;;;5061237;28;20290;-73
2021/01/31 04:32:05;;;;;;;41.40;19.30;;;;;;;;;;5055918;28;20169;-72
2021/01/31 04:34:31;;;;;;;40.83;21.45;;;;;;;;;;5056487;28;20197;-72
2021/01/31 04:36:57;;;;;;;37.25;19.70;;;;;;;;;;5056767;28;20172;-73
2021/01/31 04:39:23;;;;;;;38.47;21.17;;;;;;;;;;5056192;28;20279;-73
2021/01/31 04:41:49;;;;;;;38.45;20.30;;;;;;;;;;5050596;28;20188;-73
2021/01/31 04:44:17;;;;;;;39.03;21.42;;;;;;;;;;5081661;28;20243;-75
2021/01/31 04:46:48;;;;;;;34.78;19.38;;;;;;;;;;5056532;28;20192;-72
2021/01/31 04:49:23;;;;;;;36.47;20.55;;;;;;;;;;5055365;28;20620;-73
2021/01/31 04:52:07;;;;;;;32.95;18.45;;;;;;;;;;5055631;28;20181;-73
2021/01/31 04:54:52;;;;;;;34.92;19.80;;;;;;;;;;5054510;28;20287;-72
2021/01/31 04:57:21;;;;;;;36.40;20.05;;;;;;;;;;5047909;28;20188;-72
2021/01/31 04:59:51;;;;;;;39.15;19.63;;;;;;;;;;5053951;28;20201;-74
2021/01/31 05:02:21;;;;;;;37.60;21.25;;;;;;;;;;5065229;28;20173;-75
2021/01/31 05:05:00;;;;;;;34.92;20.10;;;;;;;;;;5075832;28;20180;-71
2021/01/31 05:07:36;;;;;;;38.47;20.52;;;;;;;;;;5070837;28;20526;-73
2021/01/31 05:10:03;;;;;;;38.67;20.63;;;;;;;;;;5065832;28;20540;-75
2021/01/31 05:12:42;;;;;;;39.08;20.67;;;;;;;;;;5042935;28;20189;-72
2021/01/31 05:15:20;;;;;;;36.20;19.48;;;;;;;;;;5054682;28;20601;-75
2021/01/31 05:17:48;;;;;;;36.60;20.05;;;;;;;;;;5052554;28;20174;-72
2021/01/31 05:20:15;;;;;;;34.85;18.83;;;;;;;;;;5049955;28;20220;-72
2021/01/31 05:22:45;;;;;;;35.20;19.52;;;;;;;;;;5056213;28;20181;-74
2021/01/31 05:25:14;;;;;;;37.17;19.80;;;;;;;;;;5056429;28;20173;-73
2021/01/31 05:27:40;;;;;;;37.00;20.35;;;;;;;;;;5051423;28;20182;-75
2021/01/31 05:30:07;;;;;;;36.95;19.50;;;;;;;;;;5054175;28;20205;-72
2021/01/31 05:32:53;;;;;;;33.80;19.48;;;;;;;;;;5049124;28;20328;-71
2021/01/31 05:35:23;;;;;;;34.15;19.27;;;;;;;;;;5071110;28;20168;-71
2021/01/31 05:37:48;;;;;;;40.70;20.23;;;;;;;;;;5067706;28;20263;-74
2021/01/31 05:40:26;;;;;;;34.92;19.13;;;;;;;;;;5075569;28;20288;-74
2021/01/31 05:42:53;;;;;;;34.83;18.52;;;;;;;;;;5069111;28;20258;-74
2021/01/31 05:45:21;;;;;;;31.33;16.55;;;;;;;;;;5075389;28;20219;-73
2021/01/31 05:47:49;;;;;;;31.08;15.95;;;;;;;;;;5039555;28;20189;-72
2021/01/31 05:50:20;;;;;;;33.15;16.42;;;;;;;;;;5075438;28;20691;-74
2021/01/31 05:52:46;;;;;;;28.45;16.02;;;;;;;;;;5058244;28;20231;-72
2021/01/31 05:55:41;;;;;;;30.88;16.50;;;;;;;;;;5075531;28;20297;-72
2021/01/31 05:58:14;;;;;;;35.83;17.80;;;;;;;;;;5059858;28;20192;-73
2021/01/31 06:00:42;;;;;;;32.17;15.25;;;;;;;;;;5045055;28;20174;-74
2021/01/31 06:03:09;;;;;;;26.65;15.55;;;;;;;;;;5067877;28;20215;-73
2021/01/31 06:05:35;;;;;;;26.40;15.88;;;;;;;;;;5069671;28;20180;-71
2021/01/31 06:08:21;;;;;;;32.60;17.08;;;;;;;;;;5066228;28;20202;-73
2021/01/31 06:10:58;;;;;;;28.98;14.50;;;;;;;;;;5075300;28;20523;-73
2021/01/31 06:13:24;;;;;;;30.95;17.45;;;;;;;;;;5067510;28;20628;-72
2021/01/31 06:15:54;;;;;;;32.05;16.00;;;;;;;;;;5063407;28;20561;-74
2021/01/31 06:18:24;;;;;;;30.60;16.30;;;;;;;;;;5054211;28;20507;-72
2021/01/31 06:20:50;;;;;;;29.95;15.10;;;;;;;;;;5054750;28;20181;-72
2021/01/31 06:23:21;;;;;;;27.48;15.45;;;;;;;;;;5054107;28;20617;-73
2021/01/31 06:25:47;;;;;;;23.60;14.27;;;;;;;;;;5055028;28;20231;-72
2021/01/31 06:28:20;;;;;;;27.77;16.15;;;;;;;;;;5052708;28;20264;-75
2021/01/31 06:30:53;;;;;;;27.38;14.77;;;;;;;;;;5054450;28;20315;-71
2021/01/31 06:33:19;;;;;;;27.75;15.05;;;;;;;;;;5054432;28;20205;-71
2021/01/31 06:35:45;;;;;;;28.75;13.43;;;;;;;;;;5053860;28;20188;-72
2021/01/31 06:38:22;;;;;;;31.98;16.00;;;;;;;;;;5055300;28;20173;-72
2021/01/31 06:41:00;;;;;;;27.27;14.95;;;;;;;;;;5065180;28;20255;-74
2021/01/31 06:43:45;;;;;;;24.50;13.20;;;;;;;;;;5040288;28;20181;-74
2021/01/31 06:46:16;;;;;;;24.40;12.57;;;;;;;;;;5037160;28;20256;-71
2021/01/31 06:49:06;;;;;;;24.73;12.77;;;;;;;;;;5067742;28;20678;-74
2021/01/31 06:51:44;;;;;;;24.27;14.13;;;;;;;;;;5047374;28;20184;-73
2021/01/31 06:54:10;;;;;;;23.83;13.40;;;;;;;;;;5043437;28;20288;-73
2021/01/31 06:56:39;;;;;;;21.48;11.70;;;;;;;;;;5052577;28;20240;-75
2021/01/31 06:59:25;;;;;;;27.25;12.77;;;;;;;;;;5041079;28;20204;-73
2021/01/31 07:02:11;;;;;;;21.15;11.60;;;;;;;;;;5051072;28;20260;-74
2021/01/31 07:04:46;;;;;;;17.83;10.40;;;;;;;;;;5053203;28;20207;-72
2021/01/31 07:07:31;;;;;;;17.45;9.82;;;;;;;;;;5051942;28;20189;-75
2021/01/31 07:10:16;;;;;;;22.90;12.25;;;;;;;;;;5049613;28;20196;-73
2021/01/31 07:12:45;;;;;;;17.65;10.15;;;;;;;;;;5071691;28;20190;-74
2021/01/31 07:15:15;;;;;;;22.73;10.98;;;;;;;;;;5066602;28;20169;-74
2021/01/31 07:17:56;;;;;;;17.20;9.02;;;;;;;;;;5053822;28;20652;-74
2021/01/31 07:20:25;;;;;;;23.60;10.60;;;;;;;;;;5069884;28;20236;-75
2021/01/31 07:22:58;;;;;;;19.98;11.07;;;;;;;;;;5049903;28;20195;-72
2021/01/31 07:25:42;;;;;;;22.70;12.18;;;;;;;;;;5052846;28;20616;-74
2021/01/31 07:28:23;;;;;;;17.92;9.65;;;;;;;;;;5062859;28;20176;-73
2021/01/31 07:30:58;;;;;;;18.77;9.38;;;;;;;;;;5048932;28;20172;-73
2021/01/31 07:33:39;;;;;;;17.33;10.02;;;;;;;;;;5052962;28;20204;-73
2021/01/31 07:36:05;;;;;;;18.60;9.63;;;;;;;;;;5053469;28;20177;-74
2021/01/31 07:38:39;;;;;;;19.70;10.00;;;;;;;;;;5042820;28;20228;-73
2021/01/31 07:41:07;;;;;;;17.52;8.85;;;;;;;;;;5053146;28;20180;-75
2021/01/31 07:43:34;;;;;;;18.45;10.70;;;;;;;;;;5052521;28;20242;-75
2021/01/31 07:46:03;;;;;;;18.85;10.75;;;;;;;;;;5052798;28;20185;-73
2021/01/31 07:48:32;;;;;;;18.92;10.35;;;;;;;;;;5052408;28;20197;-74
2021/01/31 07:50:59;;;;;;;19.02;10.20;;;;;;;;;;5053127;28;20268;-73
2021/01/31 07:53:30;;;;;;;19.73;10.30;;;;;;;;;;5050590;28;20548;-74
2021/01/31 07:55:56;;;;;;;18.20;9.93;;;;;;;;;;5066603;28;20177;-72
2021/01/31 07:58:25;;;;;;;19.75;10.57;;;;;;;;;;5061971;28;20188;-74
2021/01/31 08:00:52;;;;;;;17.10;9.50;;;;;;;;;;5048586;28;20548;-73
2021/01/31 08:03:35;;;;;;;15.45;8.35;;;;;;;;;;5052611;28;20173;-74
2021/01/31 08:06:30;;;;;;;19.48;10.75;;;;;;;;;;5053059;28;20180;-73
2021/01/31 08:08:56;;;;;;;17.02;10.32;;;;;;;;;;5054042;28;20205;-74
2021/01/31 08:11:37;;;;;;;14.80;8.80;;;;;;;;;;5055662;28;20326;-74
2021/01/31 08:14:04;;;;;;;16.65;9.50;;;;;;;;;;5052761;28;20204;-75
2021/01/31 08:16:48;;;;;;;20.30;10.05;;;;;;;;;;5060838;28;20188;-73
2021/01/31 08:19:17;;;;;;;16.17;8.80;;;;;;;;;;5051154;28;20651;-75
2021/01/31 08:21:47;;;;;;;18.05;9.63;;;;;;;;;;5052421;28;20629;-75
2021/01/31 08:24:13;;;;;;;17.38;9.00;;;;;;;;;;5052318;28;20239;-76
2021/01/31 08:26:42;;;;;;;17.38;8.75;;;;;;;;;;5051667;28;20177;-73
2021/01/31 08:29:18;;;;;;;14.65;8.50;;;;;;;;;;5051954;28;20197;-74
2021/01/31 08:32:03;;;;;;;15.82;8.70;;;;;;;;;;5052994;28;20649;-72
2021/01/31 08:34:29;;;;;;;15.40;8.90;;;;;;;;;;5052507;28;20661;-75
2021/01/31 08:36:55;;;;;;;17.00;8.73;;;;;;;;;;5052696;28;20181;-74
2021/01/31 08:39:31;;;;;;;15.32;9.23;;;;;;;;;;5044552;28;20206;-76
2021/01/31 08:42:07;;;;;;;17.60;9.65;;;;;;;;;;5067236;28;20186;-74
2021/01/31 08:44:45;;;;;;;13.40;7.93;;;;;;;;;;5066112;28;20183;-74
2021/01/31 08:47:12;;;;;;;16.20;8.95;;;;;;;;;;5064345;28;20642;-71
2021/01/31 08:49:38;;;;;;;17.30;9.75;;;;;;;;;;5067816;28;20192;-74
2021/01/31 08:52:11;;;;;;;19.48;10.25;;;;;;;;;;5048213;28;20546;-72
2021/01/31 08:54:37;;;;;;;16.23;10.07;;;;;;;;;;5046248;28;20633;-73
2021/01/31 08:57:07;;;;;;;16.80;10.10;;;;;;;;;;5051758;28;20230;-73
2021/01/31 08:59:38;;;;;;;15.68;9.30;;;;;;;;;;5058186;28;20205;-74
2021/01/31 09:02:10;;;;;;;16.00;9.55;;;;;;;;;;5052305;28;20180;-73
2021/01/31 09:04:38;;;;;;;15.43;9.98;;;;;;;;;;5052164;28;20205;-75
2021/01/31 09:07:04;;;;;;;15.10;9.10;;;;;;;;;;5055690;28;20184;-74
2021/01/31 09:09:35;;;;;;;17.25;9.68;;;;;;;;;;5074246;28;20203;-75
2021/01/31 09:12:02;;;;;;;17.23;9.85;;;;;;;;;;5071820;28;20195;-73
2021/01/31 09:14:31;;;;;;;15.82;10.00;;;;;;;;;;5075373;28;20689;-75
2021/01/31 09:17:08;;;;;;;16.50;10.00;;;;;;;;;;5056009;28;20177;-74
2021/01/31 09:19:34;;;;;;;17.63;11.15;;;;;;;;;;5047196;28;20692;-77
2021/01/31 09:22:12;;;;;;;17.02;9.82;;;;;;;;;;5052656;28;20183;-73
2021/01/31 09:24:39;;;;;;;20.80;11.73;;;;;;;;;;5055876;28;20181;-77
2021/01/31 09:27:06;;;;;;;16.25;9.98;;;;;;;;;;5062228;28;20192;-72
2021/01/31 09:29:33;;;;;;;17.77;11.35;;;;;;;;;;5049938;28;20205;-73
2021/01/31 09:32:03;;;;;;;22.08;10.98;;;;;;;;;;5050988;28;20177;-72
2021/01/31 09:34:29;;;;;;;16.23;9.40;;;;;;;;;;5051879;28;20205;-73
2021/01/31 09:37:04;;;;;;;17.80;10.88;;;;;;;;;;5069406;28;20172;-73
2021/01/31 09:39:30;;;;;;;19.00;11.63;;;;;;;;;;5054542;28;20232;-75
2021/01/31 09:41:57;;;;;;;21.88;11.90;;;;;;;;;;5056020;28;20212;-73
2021/01/31 09:44:23;;;;;;;17.83;11.23;;;;;;;;;;5071638;28;20533;-75
2021/01/31 09:46:49;;;;;;;17.65;10.73;;;;;;;;;;5067570;28;20185;-77
2021/01/31 09:49:20;;;;;;;16.20;11.07;;;;;;;;;;5064302;28;20238;-75
2021/01/31 09:51:46;;;;;;;19.48;11.90;;;;;;;;;;5065025;28;20263;-75
2021/01/31 09:54:20;;;;;;;15.68;11.07;;;;;;;;;;5055011;28;20581;-76
2021/01/31 09:56:56;;;;;;;17.60;10.68;;;;;;;;;;5039022;28;20243;-73
2021/01/31 09:59:25;;;;;;;17.25;12.20;;;;;;;;;;5050355;28;20205;-75
2021/01/31 10:01:52;;;;;;;15.48;10.52;;;;;;;;;;5051496;28;20263;-72
2021/01/31 10:04:23;;;;;;;16.90;11.63;;;;;;;;;;5050261;28;20184;-73
2021/01/31 10:06:50;;;;;;;16.13;11.07;;;;;;;;;;5051373;28;20279;-74
2021/01/31 10:09:32;;;;;;;17.02;12.20;;;;;;;;;;5067146;28;20610;-71
2021/01/31 10:12:13;;;;;;;17.83;12.57;;;;;;;;;;5072519;28;20242;-72
2021/01/31 10:14:49;;;;;;;16.77;11.52;;;;;;;;;;5060012;28;20239;-76
2021/01/31 10:17:17;;;;;;;16.40;11.85;;;;;;;;;;5050462;28;20179;-72
2021/01/31 10:19:44;;;;;;;19.38;12.30;;;;;;;;;;5056925;28;20239;-75
2021/01/31 10:22:13;;;;;;;16.63;11.40;;;;;;;;;;5071036;28;20263;-73
2021/01/31 10:24:45;;;;;;;18.88;12.32;;;;;;;;;;5059860;28;20728;-73
2021/01/31 10:27:11;;;;;;;16.55;11.25;;;;;;;;;;5070948;28;20191;-72
2021/01/31 10:29:37;;;;;;;16.20;11.50;;;;;;;;;;5050732;28;20569;-73
2021/01/31 10:32:26;;;;;;;15.25;11.35;;;;;;;;;;5050859;28;20208;-74
2021/01/31 10:34:55;;;;;;;16.67;11.15;;;;;;;;;;5044243;28;20212;-75
2021/01/31 10:37:30;;;;;;;18.90;12.35;;;;;;;;;;5050889;28;20275;-71
2021/01/31 10:39:56;;;;;;;16.95;11.40;;;;;;;;;;5046070;28;20886;-72
2021/01/31 10:42:22;;;;;;;18.30;12.10;;;;;;;;;;5051045;28;20185;-77
2021/01/31 10:44:48;;;;;;;18.00;11.85;;;;;;;;;;5050515;28;20217;-75
2021/01/31 10:47:14;;;;;;;17.80;11.35;;;;;;;;;;5050490;28;20707;-76
2021/01/31 10:49:40;;;;;;;16.90;11.85;;;;;;;;;;5050296;28;20263;-72
2021/01/31 10:52:08;;;;;;;18.58;11.82;;;;;;;;;;5050523;28;20268;-74
2021/01/31 10:54:34;;;;;;;20.73;12.68;;;;;;;;;;5049857;28;20288;-74
2021/01/31 10:57:00;;;;;;;15.50;11.00;;;;;;;;;;5049086;28;20697;-75
2021/01/31 10:59:26;;;;;;;19.77;12.75;;;;;;;;;;5050194;28;20661;-75
2021/01/31 11:01:52;;;;;;;19.10;11.80;;;;;;;;;;5050343;28;20291;-72
2021/01/31 11:04:20;;;;;;;18.95;12.65;;;;;;;;;;5052084;28;20738;-76
2021/01/31 11:06:46;;;;;;;16.92;11.88;;;;;;;;;;5070233;28;20202;-75
2021/01/31 11:09:14;;;;;;;16.55;11.05;;;;;;;;;;5050069;28;20296;-75
2021/01/31 11:11:40;;;;;;;16.77;10.93;;;;;;;;;;5043317;28;20189;-74
2021/01/31 11:14:06;;;;;;;14.65;10.68;;;;;;;;;;5062823;28;20210;-72
2021/01/31 11:16:33;;;;;;;16.65;12.55;;;;;;;;;;5051894;28;20329;-72
2021/01/31 11:18:59;;;;;;;16.52;12.02;;;;;;;;;;5049760;28;20546;-76
2021/01/31 11:21:27;;;;;;;16.83;11.90;;;;;;;;;;5049269;28;20193;-73
2021/01/31 11:23:54;;;;;;;17.75;12.30;;;;;;;;;;5053049;28;20180;-73
2021/01/31 11:26:20;;;;;;;14.52;11.07;;;;;;;;;;5065741;28;20187;-72
2021/01/31 11:28:46;;;;;;;15.93;10.77;;;;;;;;;;5059752;28;20556;-72
2021/01/31 11:31:12;;;;;;;15.73;11.52;;;;;;;;;;5049143;28;20192;-74
2021/01/31 11:33:39;;;;;;;17.67;11.70;;;;;;;;;;5049235;28;20209;-74
2021/01/31 11:36:05;;;;;;;19.20;12.65;;;;;;;;;;5049659;28;20195;-71
2021/01/31 11:38:32;;;;;;;17.15;11.63;;;;;;;;;;5049523;28;20201;-75
2021/01/31 11:40:58;;;;;;;17.17;11.50;;;;;;;;;;5049700;28;20184;-76
2021/01/31 11:43:24;;;;;;;14.45;11.10;;;;;;;;;;5048525;28;20272;-75
2021/01/31 11:45:50;;;;;;;15.13;11.20;;;;;;;;;;5048955;28;20181;-73
2021/01/31 11:48:18;;;;;;;18.63;13.32;;;;;;;;;;5049299;28;20593;-75
2021/01/31 11:50:45;;;;;;;14.02;10.98;;;;;;;;;;5049282;28;20242;-72
2021/01/31 11:53:10;;;;;;;17.00;12.45;;;;;;;;;;5047569;28;20204;-72
2021/01/31 11:55:37;;;;;;;14.50;10.35;;;;;;;;;;5049281;28;20302;-74
2021/01/31 11:58:03;;;;;;;13.93;10.80;;;;;;;;;;5048625;28;20893;-76
2021/01/31 12:00:29;;;;;;;13.70;11.48;;;;;;;;;;5054432;28;20211;-75
2021/01/31 12:02:55;;;;;;;12.15;10.93;;;;;;;;;;5059641;28;20199;-75
2021/01/31 12:05:23;;;;;;;13.63;11.23;;;;;;;;;;5069369;28;20257;-72
2021/01/31 12:07:49;;;;;;;13.38;11.93;;;;;;;;;;5056167;28;20267;-75
2021/01/31 12:10:16;;;;;;;12.02;10.73;;;;;;;;;;5069052;28;20199;-73
2021/01/31 12:12:42;;;;;;;12.90;11.60;;;;;;;;;;5063212;28;20271;-73
2021/01/31 12:15:11;;;;;;;15.52;13.82;;;;;;;;;;5053674;28;20177;-70
2021/01/31 12:17:38;;;;;;;12.70;11.27;;;;;;;;;;5065328;28;20227;-76
2021/01/31 12:20:05;;;;;;;13.05;11.82;;;;;;;;;;5063912;28;20299;-74
2021/01/31 12:22:31;;;;;;;13.10;11.80;;;;;;;;;;5061315;28;20580;-74
2021/01/31 12:24:57;;;;;;;13.50;12.10;;;;;;;;;;5054385;28;20191;-71
2021/01/31 12:27:27;;;;;;;13.90;12.23;;;;;;;;;;5061262;28;20180;-72
2021/01/31 12:29:53;;;;;;;14.38;12.15;;;;;;;;;;5052495;28;20209;-73
2021/01/31 12:32:19;;;;;;;12.93;11.40;;;;;;;;;;5049165;28;20180;-72
2021/01/31 12:34:45;;;;;;;14.63;11.90;;;;;;;;;;5048572;28;20855;-76
2021/01/31 12:37:11;;;;;;;13.10;11.50;;;;;;;;;;5048920;28;20187;-74
2021/01/31 12:39:37;;;;;;;12.88;11.07;;;;;;;;;;5068156;28;20326;-71
2021/01/31 12:42:04;;;;;;;18.65;11.98;;;;;;;;;;5048866;28;20197;-75
2021/01/31 12:44:30;;;;;;;13.40;10.90;;;;;;;;;;5052879;28;20189;-71
2021/01/31 12:46:56;;;;;;;13.40;10.75;;;;;;;;;;5052597;28;20185;-72
2021/01/31 12:49:22;;;;;;;13.95;11.18;;;;;;;;;;5052606;28;20215;-74
2021/01/31 12:51:48;;;;;;;14.40;11.60;;;;;;;;;;5050260;28;20184;-75
2021/01/31 12:54:14;;;;;;;15.10;11.95;;;;;;;;;;5043649;28;20547;-72
2021/01/31 12:56:40;;;;;;;16.30;12.40;;;;;;;;;;5049644;28;20537;-73
2021/01/31 12:59:06;;;;;;;14.95;11.25;;;;;;;;;;5066033;28;20205;-71
2021/01/31 13:01:32;;;;;;;15.75;11.93;;;;;;;;;;5052236;28;20702;-70
2021/01/31 13:03:58;;;;;;;16.83;11.98;;;;;;;;;;5052539;28;20189;-75
2021/01/31 13:06:24;;;;;;;14.60;11.68;;;;;;;;;;5051074;28;20189;-72
2021/01/31 13:08:50;;;;;;;15.18;11.10;;;;;;;;;;5066105;28;20285;-74
2021/01/31 13:11:17;;;;;;;15.57;11.70;;;;;;;;;;5050315;28;20187;-74
2021/01/31 13:13:43;;;;;;;13.50;11.15;;;;;;;;;;5052220;28;20192;-76
2021/01/31 13:16:09;;;;;;;14.70;10.85;;;;;;;;;;5051942;28;20176;-75
2021/01/31 13:18:35;;;;;;;14.93;11.63;;;;;;;;;;5053020;28;20208;-72
2021/01/31 13:21:01;;;;;;;14.35;10.73;;;;;;;;;;5052408;28;20193;-73
2021/01/31 13:23:27;;;;;;;18.65;13.18;;;;;;;;;;5052375;28;20184;-72
2021/01/31 13:25:53;;;;;;;18.40;13.00;;;;;;;;;;5067410;28;20252;-73
2021/01/31 13:28:19;;;;;;;18.10;16.20;;;;;;;;;;5059868;28;20549;-76
2021/01/31 13:30:45;;;;;;;15.60;12.77;;;;;;;;;;5052029;28;20196;-74
2021/01/31 13:33:11;;;;;;;16.45;14.25;;;;;;;;;;5051958;28;20200;-72
2021/01/31 13:35:37;;;;;;;19.55;15.70;;;;;;;;;;5052204;28;20230;-74
2021/01/31 13:38:03;;;;;;;14.60;10.85;;;;;;;;;;5052133;28;20216;-73
2021/01/31 13:40:30;;;;;;;14.20;11.40;;;;;;;;;;5051525;28;20197;-73
2021/01/31 13:42:56;;;;;;;15.20;12.25;;;;;;;;;;5051715;28;20181;-74
2021/01/31 13:45:22;;;;;;;12.18;10.50;;;;;;;;;;5051284;28;20212;-75
2021/01/31 13:47:49;;;;;;;13.90;11.90;;;;;;;;;;5051838;28;20216;-73
2021/01/31 13:50:17;;;;;;;12.48;10.07;;;;;;;;;;5051065;28;20333;-75
2021/01/31 13:52:43;;;;;;;12.07;10.20;;;;;;;;;;5051007;28;20181;-75
2021/01/31 13:55:09;;;;;;;14.35;10.32;;;;;;;;;;5050878;28;20181;-75
2021/01/31 13:57:35;;;;;;;14.75;10.93;;;;;;;;;;5058458;28;20188;-73
2021/01/31 14:00:01;;;;;;;14.77;12.25;;;;;;;;;;5064813;28;20225;-74
2021/01/31 14:02:27;;;;;;;15.43;10.82;;;;;;;;;;5051679;28;20198;-72
2021/01/31 14:04:53;;;;;;;12.23;9.85;;;;;;;;;;5051243;28;20667;-74
2021/01/31 14:07:19;;;;;;;12.18;9.38;;;;;;;;;;5051247;28;20295;-74
2021/01/31 14:09:45;;;;;;;11.55;9.32;;;;;;;;;;5069979;28;20985;-74
2021/01/31 14:12:11;;;;;;;12.93;10.75;;;;;;;;;;5062381;28;20189;-75
2021/01/31 14:14:37;;;;;;;16.48;12.07;;;;;;;;;;5063911;28;20197;-74
2021/01/31 14:17:03;;;;;;;14.93;11.60;;;;;;;;;;5051432;28;20562;-74
2021/01/31 14:19:29;;;;;;;13.65;10.98;;;;;;;;;;5073466;28;20204;-73
2021/01/31 14:21:55;;;;;;;15.23;10.55;;;;;;;;;;5061104;28;20188;-72
2021/01/31 14:24:21;;;;;;;14.55;11.10;;;;;;;;;;5060240;28;20226;-73
2021/01/31 14:26:47;;;;;;;17.08;13.90;;;;;;;;;;5040739;28;20182;-71
2021/01/31 14:29:13;;;;;;;18.33;12.45;;;;;;;;;;5060568;28;20208;-73
2021/01/31 14:31:39;;;;;;;14.93;10.73;;;;;;;;;;5042317;28;20838;-72
2021/01/31 14:34:05;;;;;;;15.50;11.13;;;;;;;;;;5050447;28;20232;-75